Data for 04/23/2016

Time Sea-Level Adjusted Pressure Absolute Pressure Temperature Relative Humidity Dew Point   
(mb) (inHg) (mb) (inHg) (C) (F) (%) (C) (F)
00:05 1008 29.77 838 24.75 12.3 54.2 31 -4.2 24.4
00:10 1008 29.77 838 24.75 12.3 54.2 31 -4.4 24.1
00:15 1008 29.77 838 24.75 12.4 54.3 30 -4.6 23.7
00:20 1008 29.77 838 24.75 12.4 54.3 30 -4.5 23.9
00:25 1008 29.77 838 24.75 12.4 54.3 30 -4.8 23.4
00:30 1008 29.77 837 24.72 12.7 54.9 28 -5.1 22.9
00:35 1008 29.77 837 24.72 13 55.3 28 -5 22.9
00:40 1008 29.77 837 24.72 13 55.4 30 -4.3 24.2
00:45 1008 29.77 837 24.72 12.6 54.7 29 -4.8 23.4
00:50 1008 29.77 837 24.72 12.7 54.8 30 -4.5 23.8
00:55 1008 29.77 837 24.72 12.4 54.4 31 -4.2 24.4
01:00 1008 29.77 837 24.72 12.2 53.9 31 -4.6 23.6
01:05 1008 29.77 837 24.72 12.3 54.1 31 -4.5 23.9
01:10 1008 29.77 837 24.72 12.4 54.3 30 -4.5 23.8
01:15 1008 29.77 837 24.72 12.4 54.3 31 -4.4 24.1
01:20 1008 29.77 837 24.72 12.3 54.1 31 -4.3 24.2
01:25 1008 29.77 837 24.72 12.2 54 31 -4.3 24.3
01:30 1008 29.77 837 24.72 12.2 54 31 -4.4 24
01:35 1008 29.77 837 24.72 12.6 54.6 31 -4.2 24.4
01:40 1008 29.77 837 24.72 12.7 54.8 30 -4.6 23.7
01:45 1008 29.77 837 24.72 13 55.3 30 -4.4 24.2
01:50 1008 29.77 837 24.72 12.9 55.1 30 -4.4 24.1
01:55 1008 29.77 837 24.72 12.9 55.1 30 -4.4 24.1
02:00 1008 29.77 837 24.72 13 55.3 30 -3.9 24.9
02:05 1008 29.77 837 24.72 12.8 55 32 -3.6 25.4
02:10 1008 29.77 837 24.72 12.5 54.5 33 -3.1 26.3
02:15 1008 29.77 837 24.72 12.1 53.8 35 -2.8 26.9
02:20 1008 29.77 837 24.72 11.8 53.3 36 -2.8 26.9
02:25 1008 29.77 837 24.72 11.7 53 36 -2.8 26.9
02:30 1008 29.77 837 24.72 11.6 52.8 37 -2.7 27.2
02:35 1008 29.77 837 24.72 11.4 52.5 38 -2.5 27.5
02:40 1008 29.77 837 24.72 11.2 52.2 38 -2.4 27.7
02:45 1008 29.77 837 24.72 11.1 52 38 -2.6 27.3
02:50 1008 29.77 837 24.72 11.2 52.1 40 -2 28.3
02:55 1008 29.77 838 24.75 11.2 52.2 40 -1.8 28.7
03:00 1008 29.77 838 24.75 11.3 52.3 43 -0.8 30.6
03:05 1009 29.8 838 24.75 11 51.8 48 0.6 33
03:10 1009 29.8 838 24.75 10.7 51.3 52 1.4 34.5
03:15 1009 29.8 838 24.75 10.5 50.8 53 1.4 34.5
03:20 1009 29.8 838 24.75 10.4 50.8 53 1.3 34.3
03:25 1009 29.8 838 24.75 10.4 50.8 52 1.1 33.9
03:30 1009 29.8 838 24.75 10.4 50.8 51 0.8 33.5
03:35 1009 29.8 838 24.75 10.3 50.5 52 1 33.8
03:40 1009 29.8 838 24.75 10.2 50.4 53 1.1 34.1
03:45 1009 29.8 838 24.75 10 50 54 1.2 34.2
03:50 1009 29.8 838 24.75 9.9 49.9 54 1.2 34.1
03:55 1009 29.8 838 24.75 10.1 50.2 53 0.9 33.6
04:00 1009 29.8 838 24.75 10.2 50.3 53 1 33.8
04:05 1009 29.8 838 24.75 10.1 50.1 54 1.2 34.2
04:10 1009 29.8 838 24.75 10 50.1 55 1.4 34.5
04:15 1009 29.8 839 24.78 9.9 49.9 55 1.4 34.5
04:20 1009 29.8 839 24.78 9.9 49.8 55 1.4 34.5
04:25 1009 29.8 838 24.75 9.9 49.9 56 1.5 34.7
04:30 1009 29.8 839 24.78 9.9 49.9 56 1.6 34.8
04:35 1009 29.8 839 24.78 9.9 49.7 56 1.4 34.6
04:40 1009 29.8 839 24.78 9.8 49.6 56 1.4 34.5
04:45 1009 29.8 839 24.78 9.8 49.6 56 1.5 34.7
04:50 1009 29.8 839 24.78 9.7 49.5 57 1.6 35
04:55 1009 29.8 839 24.78 9.8 49.6 58 1.9 35.4
05:00 1009 29.8 839 24.78 9.6 49.3 57 1.6 34.9
05:05 1009 29.8 839 24.78 9.4 49 57 1.3 34.3
05:10 1009 29.8 839 24.78 9.4 49 58 1.6 34.9
05:15 1009 29.8 839 24.78 9.2 48.6 59 1.6 34.9
05:20 1009 29.8 839 24.78 9.3 48.7 59 1.7 35.1
05:25 1009 29.8 839 24.78 9.4 48.9 59 1.7 35.1
05:30 1009 29.8 839 24.78 9.4 48.9 59 1.8 35.3
05:35 1009 29.8 839 24.78 9.3 48.7 60 1.8 35.3
05:40 1009 29.8 839 24.78 9.2 48.6 59 1.6 34.9
05:45 1009 29.8 839 24.78 9.3 48.8 59 1.7 35
05:50 1009 29.8 839 24.78 9.3 48.8 59 1.8 35.3
05:55 1010 29.83 839 24.78 9.3 48.7 60 2 35.5
06:00 1009 29.8 839 24.78 9.2 48.6 60 2 35.5
06:05 1010 29.83 839 24.78 9.3 48.8 60 2 35.6
06:10 1010 29.83 839 24.78 9.3 48.8 61 2.2 35.9
06:15 1010 29.83 839 24.78 9.3 48.7 61 2.2 36
06:20 1010 29.83 839 24.78 9.2 48.5 62 2.3 36.1
06:25 1010 29.83 839 24.78 9.1 48.5 61 1.9 35.5
06:30 1010 29.83 839 24.78 9.1 48.4 60 1.9 35.4
06:35 1010 29.83 839 24.78 9.1 48.4 59 1.6 34.9
06:40 1010 29.83 839 24.78 9.1 48.4 59 1.7 35
06:45 1010 29.83 839 24.78 9.2 48.5 59 1.7 35
06:50 1009 29.8 839 24.78 9.3 48.7 59 1.8 35.2
06:55 1010 29.83 839 24.78 9.3 48.8 60 2 35.6
07:00 1010 29.83 839 24.78 9.3 48.7 60 2 35.6
07:05 1010 29.83 839 24.78 9.2 48.6 60 2 35.5
07:10 1010 29.83 839 24.78 9.2 48.5 61 2 35.6
07:15 1010 29.83 839 24.78 9.2 48.5 61 2.1 35.8
07:20 1010 29.83 839 24.78 9.2 48.6 60 2 35.5
07:25 1010 29.83 839 24.78 9.4 48.9 58 1.6 35
07:30 1010 29.83 839 24.78 9.5 49 59 1.9 35.4
07:35 1010 29.83 839 24.78 9.5 49.2 58 1.8 35.2
07:40 1010 29.83 839 24.78 9.5 49 60 2.1 35.8
07:45 1010 29.83 839 24.78 9.4 48.9 60 2 35.6
07:50 1010 29.83 839 24.78 9.5 49.1 60 2.1 35.9
07:55 1010 29.83 839 24.78 9.4 49 62 2.4 36.4
08:00 1010 29.83 839 24.78 9.5 49 64 2.9 37.2
08:05 1010 29.83 839 24.78 9.5 49.2 62 2.7 36.9
08:10 1010 29.83 839 24.78 9.7 49.4 61 2.5 36.5
08:15 1010 29.83 839 24.78 9.7 49.5 64 3.2 37.8
08:20 1010 29.83 839 24.78 10 49.9 58 2.2 36
08:25 1010 29.83 839 24.78 10.1 50.2 61 2.9 37.2
08:30 1010 29.83 839 24.78 10.1 50.3 62 3.2 37.8
08:35 1010 29.83 839 24.78 10.2 50.4 57 2.1 35.8
08:40 1010 29.83 839 24.78 10.1 50.2 60 2.7 36.8
08:45 1010 29.83 839 24.78 10.4 50.8 58 2.6 36.7
08:50 1010 29.83 839 24.78 10.6 51.1 59 3 37.4
08:55 1010 29.83 839 24.78 10.5 51 59 2.9 37.3
09:00 1010 29.83 839 24.78 10.5 50.8 60 3 37.3
09:05 1010 29.83 839 24.78 10.5 50.8 61 3.2 37.8
09:10 1010 29.83 839 24.78 10.4 50.8 61 3.3 37.9
09:15 1010 29.83 839 24.78 10.5 50.8 61 3.4 38.1
09:20 1010 29.83 839 24.78 10.6 51.1 61 3.5 38.3
09:25 1010 29.83 839 24.78 10.6 51.1 61 3.5 38.3
09:30 1010 29.83 839 24.78 10.6 51.2 62 3.7 38.7
09:35 1010 29.83 839 24.78 10.7 51.2 60 3.2 37.8
09:40 1009 29.8 839 24.78 10.7 51.3 60 3.3 38
09:45 1009 29.8 839 24.78 10.9 51.6 61 3.6 38.5
09:50 1010 29.83 839 24.78 11.1 52 59 3.5 38.2
09:55 1010 29.83 839 24.78 11 51.8 58 3.2 37.7
10:00 1010 29.83 839 24.78 10.9 51.5 60 3.4 38
10:05 1010 29.83 839 24.78 10.8 51.5 59 3.2 37.8
10:10 1010 29.83 839 24.78 10.6 51.1 60 3.2 37.7
10:15 1010 29.83 839 24.78 10.3 50.5 63 3.5 38.3
10:20 1010 29.83 839 24.78 10.1 50.2 67 4.3 39.7
10:25 1010 29.83 839 24.78 9.9 49.8 68 4.3 39.7
10:30 1010 29.83 839 24.78 9.7 49.4 69 4.2 39.6
10:35 1010 29.83 839 24.78 9.5 49.1 70 4.3 39.8
10:40 1010 29.83 839 24.78 9.4 48.9 72 4.6 40.3
10:45 1010 29.83 839 24.78 9.3 48.8 74 4.9 40.8
10:50 1010 29.83 839 24.78 9.4 49 74 5 41
10:55 1010 29.83 839 24.78 9.7 49.5 73 5 41.1
11:00 1010 29.83 839 24.78 9.9 49.9 69 4.6 40.2
11:05 1010 29.83 839 24.78 10.3 50.6 71 5.3 41.6
11:10 1010 29.83 839 24.78 10.6 51.1 65 4.4 39.9
11:15 1010 29.83 839 24.78 10.4 50.8 66 4.5 40
11:20 1010 29.83 839 24.78 10.2 50.3 68 4.5 40.1
11:25 1010 29.83 839 24.78 10.1 50.1 67 4.3 39.7
11:30 1010 29.83 839 24.78 10 50.1 67 4.3 39.7
11:35 1010 29.83 839 24.78 10 50 68 4.4 39.9
11:40 1010 29.83 839 24.78 10 50 71 5 40.9
11:45 1010 29.83 839 24.78 10 50 72 5.3 41.5
11:50 1010 29.83 839 24.78 9.9 49.9 73 5.4 41.7
11:55 1010 29.83 839 24.78 10.2 50.4 72 5.4 41.8
12:00 1010 29.83 839 24.78 10.1 50.3 72 5.4 41.7
12:05 1010 29.83 839 24.78 10.1 50.2 74 5.7 42.3
12:10 1010 29.83 839 24.78 10.2 50.4 72 5.5 41.9
12:15 1010 29.83 839 24.78 10.3 50.5 73 5.7 42.2
12:20 1010 29.83 839 24.78 9.9 49.9 74 5.6 42
12:25 1010 29.83 839 24.78 9.8 49.7 73 5.2 41.4
12:30 1010 29.83 839 24.78 9.5 49.1 73 4.9 40.8
12:35 1010 29.83 839 24.78 9.2 48.5 77 5.4 41.6
12:40 1010 29.83 839 24.78 9.2 48.6 77 5.3 41.6
12:45 1010 29.83 839 24.78 9.2 48.6 77 5.4 41.7
12:50 1010 29.83 839 24.78 9.3 48.7 76 5.4 41.6
12:55 1010 29.83 839 24.78 9.3 48.7 77 5.4 41.7
13:00 1010 29.83 840 24.81 9 48.3 78 5.5 41.9
13:05 1010 29.83 840 24.81 9 48.2 79 5.5 41.9
13:10 1010 29.83 840 24.81 9.1 48.5 78 5.6 42.1
13:15 1010 29.83 840 24.81 9.1 48.4 76 5.1 41.2
13:20 1010 29.83 839 24.78 8.9 48 78 5.3 41.5
13:25 1010 29.83 840 24.81 8.9 48.1 77 5.1 41.1
13:30 1010 29.83 840 24.81 8.9 48 74 4.6 40.3
13:35 1010 29.83 840 24.81 8.8 47.8 78 5.1 41.3
13:40 1010 29.83 840 24.81 8.8 47.9 78 5.3 41.5
13:45 1010 29.83 840 24.81 8.8 47.8 78 5.2 41.4
13:50 1010 29.83 839 24.78 8.7 47.7 79 5.3 41.5
13:55 1010 29.83 839 24.78 8.7 47.7 78 5.2 41.3
14:00 1010 29.83 840 24.81 8.6 47.4 80 5.3 41.6
14:05 1010 29.83 840 24.81 8.5 47.2 80 5.2 41.4
14:10 1010 29.83 840 24.81 8.4 47.1 80 5.2 41.4
14:15 1010 29.83 840 24.81 8.5 47.2 81 5.5 41.8
14:20 1010 29.83 840 24.81 8.4 47 81 5.3 41.5
14:25 1010 29.83 839 24.78 8.4 47 81 5.3 41.6
14:30 1010 29.83 839 24.78 8.6 47.4 81 5.5 42
14:35 1010 29.83 839 24.78 8.7 47.6 82 5.9 42.5
14:40 1010 29.83 840 24.81 8.7 47.7 82 5.8 42.5
14:45 1010 29.83 839 24.78 8.8 47.8 82 5.9 42.6
14:50 1010 29.83 839 24.78 8.8 47.8 81 5.7 42.3
14:55 1010 29.83 839 24.78 8.7 47.7 81 5.7 42.3
15:00 1010 29.83 840 24.81 8.5 47.3 83 5.7 42.3
15:05 1010 29.83 840 24.81 8.5 47.2 83 5.7 42.3
15:10 1010 29.83 840 24.81 8.3 47 83 5.6 42.2
15:15 1010 29.83 840 24.81 8.1 46.5 82 5.2 41.4
15:20 1010 29.83 840 24.81 7.9 46.2 83 5.1 41.2
15:25 1010 29.83 840 24.81 7.8 46.1 83 5.2 41.3
15:30 1010 29.83 840 24.81 7.7 45.8 85 5.3 41.6
15:35 1010 29.83 840 24.81 7.6 45.7 84 5.1 41.1
15:40 1010 29.83 840 24.81 7.6 45.6 85 5.3 41.5
15:45 1010 29.83 840 24.81 7.6 45.6 86 5.4 41.7
15:50 1010 29.83 840 24.81 7.6 45.6 85 5.3 41.5
15:55 1010 29.83 840 24.81 7.5 45.6 86 5.4 41.7
16:00 1010 29.83 840 24.81 7.5 45.4 85 5.1 41.2
16:05 1010 29.83 840 24.81 7.4 45.2 83 4.7 40.5
16:10 1010 29.83 840 24.81 7.3 45.1 84 4.8 40.7
16:15 1011 29.85 840 24.81 7.3 45.2 85 5 41
16:20 1011 29.85 840 24.81 7.2 44.9 87 5.1 41.1
16:25 1011 29.85 840 24.81 7.1 44.7 88 5.1 41.2
16:30 1011 29.85 840 24.81 7.1 44.8 88 5.2 41.4
16:35 1011 29.85 840 24.81 7.2 44.9 88 5.3 41.5
16:40 1011 29.85 840 24.81 7.1 44.9 88 5.2 41.4
16:45 1011 29.85 840 24.81 7.1 44.8 87 5 41.1
16:50 1011 29.85 840 24.81 7 44.7 87 5 41.1
16:55 1011 29.85 840 24.81 7 44.6 86 4.8 40.6
17:00 1011 29.85 840 24.81 7 44.7 86 4.8 40.7
17:05 1011 29.85 840 24.81 7.1 44.7 86 4.9 40.8
17:10 1011 29.85 840 24.81 7 44.6 87 5 40.9
17:15 1011 29.85 840 24.81 7.1 44.8 86 4.9 40.8
17:20 1011 29.85 840 24.81 7.1 44.8 85 4.8 40.7
17:25 1011 29.85 840 24.81 7.1 44.8 86 4.9 40.8
17:30 1011 29.85 840 24.81 7.2 44.9 87 5.1 41.2
17:35 1011 29.85 840 24.81 7.2 44.9 87 5.1 41.2
17:40 1011 29.85 840 24.81 7.2 45 87 5.2 41.4
17:45 1011 29.85 840 24.81 7.3 45.1 88 5.4 41.8
17:50 1011 29.85 840 24.81 7.4 45.2 88 5.5 41.9
17:55 1011 29.85 840 24.81 7.3 45.1 89 5.5 41.9
18:00 1011 29.85 840 24.81 7.2 45 89 5.5 41.9
18:05 1011 29.85 840 24.81 7.2 45 90 5.7 42.2
18:10 1011 29.85 840 24.81 7.2 44.9 89 5.6 42
18:15 1011 29.85 840 24.81 7.1 44.8 89 5.5 41.9
18:20 1011 29.85 840 24.81 7.1 44.7 90 5.5 41.9
18:25 1011 29.85 840 24.81 7.1 44.8 89 5.4 41.7
18:30 1011 29.85 840 24.81 7.2 45 87 5.3 41.5
18:35 1011 29.85 840 24.81 7.3 45.2 87 5.3 41.6
18:40 1011 29.85 840 24.81 7.4 45.4 87 5.5 41.8
18:45 1011 29.85 840 24.81 7.3 45.2 87 5.4 41.6
18:50 1011 29.85 840 24.81 7.1 44.9 89 5.4 41.7
18:55 1011 29.85 840 24.81 7.1 44.9 88 5.3 41.5
19:00 1011 29.85 840 24.81 7.2 44.9 87 5.1 41.2
19:05 1011 29.85 840 24.81 7.1 44.8 87 5.2 41.3
19:10 1011 29.85 840 24.81 7.1 44.8 87 5 41
19:15 1011 29.85 840 24.81 7.1 44.8 87 5.1 41.1
19:20 1011 29.85 841 24.83 7.1 44.7 87 5 41
19:25 1011 29.85 841 24.83 7.1 44.8 87 5.1 41.2
19:30 1011 29.85 841 24.83 7.2 44.9 88 5.4 41.6
19:35 1011 29.85 841 24.83 7.2 44.9 87 5.2 41.4
19:40 1012 29.88 841 24.83 7.2 44.9 87 5.2 41.3
19:45 1012 29.88 841 24.83 7.1 44.8 88 5.2 41.4
19:50 1012 29.88 841 24.83 7.1 44.7 88 5.2 41.3
19:55 1012 29.88 841 24.83 7 44.6 88 5.1 41.2
20:00 1012 29.88 841 24.83 6.8 44.3 89 5.1 41.2
20:05 1012 29.88 841 24.83 6.7 44 89 5 41
20:10 1011 29.85 841 24.83 6.6 43.8 89 4.9 40.9
20:15 1011 29.85 841 24.83 6.6 43.9 90 5 41
20:20 1012 29.88 841 24.83 6.7 44 89 5 41.1
20:25 1011 29.85 841 24.83 6.7 44 89 5 41.1
20:30 1011 29.85 841 24.83 6.6 43.9 90 5.1 41.2
20:35 1011 29.85 841 24.83 6.7 44 90 5.2 41.3
20:40 1011 29.85 841 24.83 6.7 44.1 90 5.3 41.5
20:45 1011 29.85 841 24.83 6.9 44.4 91 5.4 41.8
20:50 1011 29.85 841 24.83 7 44.6 91 5.6 42.1
20:55 1011 29.85 841 24.83 7 44.7 91 5.7 42.2
21:00 1011 29.85 841 24.83 7 44.7 91 5.6 42.1
21:05 1011 29.85 841 24.83 7 44.5 90 5.5 41.8
21:10 1011 29.85 841 24.83 6.9 44.4 90 5.4 41.7
21:15 1011 29.85 841 24.83 6.8 44.3 91 5.4 41.7
21:20 1011 29.85 841 24.83 6.9 44.4 91 5.5 41.9
21:25 1011 29.85 841 24.83 7 44.6 91 5.6 42
21:30 1011 29.85 840 24.81 7 44.7 91 5.6 42.1
21:35 1011 29.85 841 24.83 7.1 44.7 91 5.6 42.1
21:40 1011 29.85 841 24.83 7 44.7 90 5.6 42
21:45 1011 29.85 841 24.83 7 44.6 90 5.5 41.9
21:50 1011 29.85 840 24.81 7 44.5 91 5.5 42
21:55 1011 29.85 841 24.83 7 44.6 91 5.6 42.1
22:00 1011 29.85 841 24.83 7 44.7 91 5.7 42.3
22:05 1011 29.85 840 24.81 7.1 44.7 91 5.7 42.3
22:10 1011 29.85 841 24.83 7 44.6 91 5.7 42.3
22:15 1011 29.85 841 24.83 7.1 44.7 91 5.8 42.4
22:20 1012 29.88 841 24.83 7.1 44.7 91 5.7 42.3
22:25 1012 29.88 841 24.83 7 44.6 91 5.7 42.2
22:30 1012 29.88 841 24.83 7 44.7 91 5.7 42.3
22:35 1012 29.88 841 24.83 7 44.6 91 5.6 42
22:40 1012 29.88 841 24.83 6.7 44 91 5.3 41.5
22:45 1012 29.88 841 24.83 6.4 43.6 91 5.1 41.1
22:50 1012 29.88 841 24.83 6.3 43.3 91 4.8 40.7
22:55 1012 29.88 841 24.83 6.1 43 90 4.6 40.4
23:00 1012 29.88 841 24.83 5.9 42.7 91 4.5 40.1
23:05 1012 29.88 841 24.83 5.9 42.6 91 4.6 40.2
23:10 1012 29.88 841 24.83 5.9 42.6 91 4.5 40.2
23:15 1012 29.88 841 24.83 5.8 42.4 91 4.5 40.1
23:20 1012 29.88 841 24.83 5.8 42.4 92 4.5 40.1
23:25 1012 29.88 841 24.83 5.7 42.3 91 4.4 39.9
23:30 1012 29.88 841 24.83 5.6 42.1 92 4.4 39.9
23:35 1012 29.88 841 24.83 5.6 42.1 92 4.4 40
23:40 1012 29.88 841 24.83 5.6 42.1 92 4.5 40
23:45 1012 29.88 841 24.83 5.6 42.1 92 4.4 40
23:50 1012 29.88 841 24.83 5.5 41.9 92 4.4 39.9
23:55 1012 29.88 841 24.83 5.5 41.9 93 4.4 39.9
24:00 1012 29.88 841 24.83 5.5 41.9 93 4.4 40